Time;durP1;ratioP1;P1;durP2;ratioP2;P2;SDS_P1;SDS_P2;PMS_P1;PMS_P2;Temp;Humidity;BMP_temperature;BMP_pressure;BME280_temperature;BME280_humidity;BME280_pressure;Samples;Min_cycle;Max_cycle;Signal;HPM_P1;HPM_P2
2022/05/22 00:01:50;;;;;;;4.43;0.40;;;26.30;41.80;;;;;;5116986;27;20050;-55
2022/05/22 00:04:18;;;;;;;2.17;0.40;;;26.30;41.30;;;;;;5108084;27;20420;-55
2022/05/22 00:06:45;;;;;;;0.75;0.30;;;26.30;41.40;;;;;;5107161;27;20034;-56
2022/05/22 00:09:12;;;;;;;2.72;0.82;;;26.20;41.40;;;;;;5110955;27;20138;-54
2022/05/22 00:11:40;;;;;;;3.25;1.08;;;26.20;41.50;;;;;;5112196;27;20553;-55
2022/05/22 00:14:11;;;;;;;1.90;1.25;;;26.20;41.60;;;;;;5112049;27;20097;-57
2022/05/22 00:16:41;;;;;;;1.83;0.30;;;26.20;41.70;;;;;;5112893;27;20042;-53
2022/05/22 00:19:10;;;;;;;0.85;0.30;;;26.20;41.80;;;;;;5118008;27;20036;-54
2022/05/22 00:21:38;;;;;;;1.75;0.20;;;26.20;41.90;;;;;;5107737;27;20048;-53
2022/05/22 00:24:07;;;;;;;1.55;0.40;;;26.10;41.90;;;;;;5111196;27;20122;-54
2022/05/22 00:26:38;;;;;;;4.35;0.30;;;26.10;42.00;;;;;;5111196;27;20039;-53
2022/05/22 00:29:06;;;;;;;7.97;0.65;;;26.10;42.10;;;;;;5112130;27;20067;-52
2022/05/22 00:31:34;;;;;;;2.65;0.20;;;26.10;42.10;;;;;;5100932;27;20126;-52
2022/05/22 00:34:01;;;;;;;0.30;0.20;;;26.10;42.30;;;;;;5108168;27;20047;-52
2022/05/22 00:36:28;;;;;;;2.40;0.57;;;26.10;42.20;;;;;;5100155;27;20085;-51
2022/05/22 00:38:56;;;;;;;2.90;0.65;;;26.10;42.30;;;;;;5109611;27;20043;-51
2022/05/22 00:41:23;;;;;;;2.38;0.20;;;26.10;42.30;;;;;;5119945;27;20129;-55
2022/05/22 00:43:53;;;;;;;0.43;0.30;;;26.10;42.50;;;;;;5111723;27;20419;-54
2022/05/22 00:46:23;;;;;;;1.17;0.68;;;26.10;42.40;;;;;;5106129;27;20821;-52
2022/05/22 00:48:53;;;;;;;1.77;0.22;;;26.00;42.30;;;;;;5107595;28;20120;-53
2022/05/22 00:51:24;;;;;;;2.47;0.40;;;26.00;42.30;;;;;;5109629;27;20046;-54
2022/05/22 00:53:59;;;;;;;2.22;0.50;;;26.00;42.30;;;;;;5123191;27;20051;-52
2022/05/22 00:56:36;;;;;;;0.65;0.30;;;26.00;42.40;;;;;;5128028;27;20034;-52
2022/05/22 00:59:08;;;;;;;2.23;0.73;;;26.00;42.40;;;;;;5127066;27;20031;-51
2022/05/22 01:01:37;;;;;;;1.58;0.52;;;25.90;42.40;;;;;;5108420;27;20092;-51
2022/05/22 01:04:06;;;;;;;1.15;0.43;;;25.90;42.40;;;;;;5123173;27;20444;-49
2022/05/22 01:06:33;;;;;;;2.67;0.65;;;25.90;42.50;;;;;;5109150;27;20043;-55
2022/05/22 01:09:06;;;;;;;1.75;0.30;;;25.90;43.10;;;;;;5119847;27;20093;-54
2022/05/22 01:11:37;;;;;;;2.50;0.20;;;25.80;42.60;;;;;;5127656;27;20046;-55
2022/05/22 01:14:07;;;;;;;3.35;0.70;;;25.80;42.70;;;;;;5108078;27;20059;-50
2022/05/22 01:16:36;;;;;;;3.17;0.30;;;25.80;42.70;;;;;;5105462;27;20158;-49
2022/05/22 01:19:11;;;;;;;6.40;0.50;;;25.80;42.80;;;;;;5125629;27;20035;-49
2022/05/22 01:21:38;;;;;;;4.75;0.20;;;25.80;42.90;;;;;;5126626;27;20046;-51
2022/05/22 01:24:08;;;;;;;3.05;0.32;;;25.70;42.80;;;;;;5118820;27;20039;-49
2022/05/22 01:26:36;;;;;;;1.83;0.50;;;25.70;42.80;;;;;;5128248;27;20039;-50
2022/05/22 01:29:10;;;;;;;2.90;0.40;;;25.70;42.90;;;;;;5112389;27;20110;-54
2022/05/22 01:31:37;;;;;;;1.30;0.40;;;25.70;42.90;;;;;;5108727;27;20320;-53
2022/05/22 01:34:06;;;;;;;1.73;0.43;;;25.70;43.00;;;;;;5102757;28;20089;-52
2022/05/22 01:36:33;;;;;;;1.70;0.30;;;25.60;42.90;;;;;;5107406;28;20482;-54
2022/05/22 01:39:00;;;;;;;3.83;0.22;;;25.60;43.10;;;;;;5116579;28;20043;-52
2022/05/22 01:41:39;;;;;;;4.03;1.33;;;25.60;43.10;;;;;;5126039;28;20434;-52
2022/05/22 01:44:07;;;;;;;2.45;0.52;;;25.60;43.00;;;;;;5115618;28;20114;-53
2022/05/22 01:46:34;;;;;;;2.10;0.30;;;25.60;43.20;;;;;;5111969;28;20069;-54
2022/05/22 01:49:10;;;;;;;1.13;0.65;;;25.50;43.10;;;;;;5105194;28;20036;-54
2022/05/22 01:51:40;;;;;;;3.58;0.75;;;25.60;43.20;;;;;;5122992;28;20119;-52
2022/05/22 01:54:08;;;;;;;2.80;0.25;;;25.60;43.20;;;;;;5104477;28;20059;-54
2022/05/22 01:56:38;;;;;;;4.95;0.30;;;25.50;43.10;;;;;;5093648;28;20115;-51
2022/05/22 01:59:07;;;;;;;2.25;0.47;;;25.60;43.20;;;;;;5095322;28;20118;-51
2022/05/22 02:01:37;;;;;;;0.20;0.15;;;25.50;43.10;;;;;;5098148;28;20044;-53
2022/05/22 02:04:05;;;;;;;3.92;0.30;;;25.50;43.10;;;;;;5100806;28;20071;-50
2022/05/22 02:08:18;;;;;;;3.00;1.05;;;25.50;43.10;;;;;;5105260;28;20067;-51
2022/05/22 02:09:27;;;;;;;2.92;0.47;;;25.50;43.10;;;;;;5086656;28;20044;-53
2022/05/22 02:11:55;;;;;;;0.88;0.38;;;25.50;43.10;;;;;;5093448;28;20453;-50
2022/05/22 02:14:23;;;;;;;9.40;0.38;;;25.50;43.10;;;;;;5091329;28;20122;-51
2022/05/22 02:16:59;;;;;;;4.57;0.20;;;25.40;43.00;;;;;;5090533;28;20114;-52
2022/05/22 02:19:26;;;;;;;1.42;0.40;;;25.40;43.00;;;;;;5086723;28;20035;-54
2022/05/22 02:21:53;;;;;;;1.90;0.15;;;25.40;42.90;;;;;;5087353;28;20036;-50
2022/05/22 02:24:23;;;;;;;0.95;0.20;;;25.40;42.70;;;;;;5087664;28;20047;-52
2022/05/22 02:27:07;;;;;;;2.38;0.45;;;25.40;42.60;;;;;;5097261;28;20047;-54
2022/05/22 02:29:34;;;;;;;6.10;0.10;;;25.40;42.60;;;;;;5092461;28;20439;-49
2022/05/22 02:32:02;;;;;;;1.08;0.35;;;25.40;42.60;;;;;;5087617;28;20046;-52
2022/05/22 02:34:29;;;;;;;1.00;0.13;;;25.30;42.50;;;;;;5097100;28;20598;-54
2022/05/22 02:36:56;;;;;;;5.95;1.20;;;25.40;42.50;;;;;;5070944;28;20407;-52
2022/05/22 02:39:24;;;;;;;1.85;0.20;;;25.30;42.20;;;;;;5087713;28;20035;-52
2022/05/22 02:41:51;;;;;;;0.77;0.20;;;25.30;42.20;;;;;;5107386;28;20083;-53
2022/05/22 02:44:19;;;;;;;1.60;0.15;;;25.30;42.10;;;;;;5096179;28;20059;-55
2022/05/22 02:46:46;;;;;;;3.53;0.30;;;25.30;42.10;;;;;;5096258;28;20041;-53
2022/05/22 02:49:14;;;;;;;3.15;0.50;;;25.30;42.00;;;;;;5100667;28;20101;-52
2022/05/22 02:51:41;;;;;;;0.90;0.13;;;25.30;42.10;;;;;;5109577;28;20735;-51
2022/05/22 02:54:09;;;;;;;1.67;0.20;;;25.30;42.10;;;;;;5103838;28;20443;-49
2022/05/22 02:56:58;;;;;;;0.65;0.30;;;25.30;42.00;;;;;;5090557;28;20036;-52
2022/05/22 02:59:48;;;;;;;1.08;0.32;;;25.20;41.90;;;;;;5109455;28;20535;-54
2022/05/22 03:02:30;;;;;;;1.60;0.10;;;25.30;42.10;;;;;;5106194;28;20047;-52
2022/05/22 03:04:58;;;;;;;1.83;0.10;;;25.20;41.90;;;;;;5094717;28;20047;-52
2022/05/22 03:07:26;;;;;;;0.88;0.25;;;25.20;41.90;;;;;;5108266;28;20036;-51
2022/05/22 03:09:56;;;;;;;2.50;0.45;;;25.20;41.90;;;;;;5099081;28;20122;-50
2022/05/22 03:12:24;;;;;;;1.65;0.40;;;25.20;41.90;;;;;;5090644;28;20470;-52
2022/05/22 03:14:58;;;;;;;0.90;0.10;;;25.20;42.00;;;;;;5092146;28;20523;-55
2022/05/22 03:17:27;;;;;;;1.10;0.17;;;25.20;42.00;;;;;;5106018;28;20235;-53
2022/05/22 03:19:56;;;;;;;0.40;0.10;;;25.20;42.00;;;;;;5091205;28;20066;-55
2022/05/22 03:22:24;;;;;;;1.13;0.10;;;25.10;41.90;;;;;;5108152;28;20054;-55
2022/05/22 03:24:51;;;;;;;1.58;0.10;;;25.20;42.00;;;;;;5102517;28;20591;-53
2022/05/22 03:27:20;;;;;;;2.58;0.10;;;25.20;42.10;;;;;;5091724;28;20040;-54
2022/05/22 03:29:51;;;;;;;0.82;0.43;;;25.20;42.20;;;;;;5092240;28;20096;-53
2022/05/22 03:32:20;;;;;;;1.02;0.10;;;25.10;42.10;;;;;;5092886;28;20690;-53
2022/05/22 03:34:49;;;;;;;0.98;0.20;;;25.20;42.10;;;;;;5098336;28;20040;-53
2022/05/22 03:37:16;;;;;;;3.13;0.20;;;25.10;42.10;;;;;;5090288;28;20028;-50
2022/05/22 03:39:43;;;;;;;0.80;0.10;;;25.10;42.00;;;;;;5089833;28;20044;-48
2022/05/22 03:42:11;;;;;;;2.55;0.10;;;25.10;42.00;;;;;;5104385;28;20384;-50
2022/05/22 03:44:39;;;;;;;0.88;0.20;;;25.10;42.00;;;;;;5095682;28;20031;-48
2022/05/22 03:47:06;;;;;;;2.17;0.20;;;25.10;42.10;;;;;;5090070;28;20085;-50
2022/05/22 03:49:44;;;;;;;1.40;0.30;;;25.10;42.00;;;;;;5090014;28;20050;-55
2022/05/22 03:52:11;;;;;;;1.35;0.10;;;25.10;42.00;;;;;;5090631;28;20096;-54
2022/05/22 03:54:38;;;;;;;0.85;0.10;;;25.10;42.00;;;;;;5117653;27;20043;-54
2022/05/22 03:57:09;;;;;;;12.00;0.52;;;25.10;42.00;;;;;;5105204;27;20062;-54
2022/05/22 03:59:38;;;;;;;1.88;0.20;;;25.00;42.00;;;;;;5109175;27;20115;-54
2022/05/22 04:02:05;;;;;;;5.53;0.28;;;25.10;42.00;;;;;;5126882;27;20130;-54
2022/05/22 04:04:34;;;;;;;0.73;0.10;;;25.00;41.90;;;;;;5107016;27;20060;-52
2022/05/22 04:07:10;;;;;;;0.90;0.13;;;25.00;41.90;;;;;;5117181;27;20753;-52
2022/05/22 04:09:37;;;;;;;2.10;0.20;;;25.00;41.90;;;;;;5124487;27;20043;-48
2022/05/22 04:12:12;;;;;;;0.65;0.10;;;25.00;41.90;;;;;;5119995;27;20088;-55
2022/05/22 04:14:41;;;;;;;1.83;0.20;;;25.00;41.90;;;;;;5114602;27;20042;-54
2022/05/22 04:17:10;;;;;;;1.00;0.10;;;25.00;41.80;;;;;;5113363;27;20114;-55
2022/05/22 04:19:38;;;;;;;0.10;0.10;;;25.00;41.80;;;;;;5105046;27;20035;-56
2022/05/22 04:22:07;;;;;;;0.95;0.10;;;25.00;41.80;;;;;;5115745;27;20043;-54
2022/05/22 04:27:23;;;;;;;3.45;0.10;;;25.00;41.70;;;;;;5123412;27;20080;-52
2022/05/22 04:29:51;;;;;;;0.82;0.15;;;24.90;41.70;;;;;;5119552;27;20046;-55
2022/05/22 04:32:20;;;;;;;1.08;0.17;;;24.90;41.60;;;;;;5114125;27;20051;-55
2022/05/22 04:34:52;;;;;;;2.53;0.20;;;24.90;41.60;;;;;;5111645;27;20039;-56
2022/05/22 04:37:19;;;;;;;1.08;0.10;;;24.90;41.60;;;;;;5117645;27;20449;-54
2022/05/22 04:39:56;;;;;;;0.10;0.10;;;25.00;41.50;;;;;;5108014;27;20369;-55
2022/05/22 04:42:23;;;;;;;1.67;0.10;;;24.90;41.60;;;;;;5126559;27;20419;-55
2022/05/22 04:44:50;;;;;;;2.17;0.52;;;24.90;41.50;;;;;;5129023;27;20039;-53
2022/05/22 04:47:43;;;;;;;1.95;0.10;;;24.90;41.40;;;;;;5112753;27;20035;-55
2022/05/22 04:50:32;;;;;;;1.75;0.10;;;24.90;41.50;;;;;;5127667;27;20131;-52
2022/05/22 04:53:11;;;;;;;0.40;0.10;;;24.90;41.50;;;;;;5123707;27;20065;-55
2022/05/22 04:55:59;;;;;;;2.75;0.15;;;24.90;41.50;;;;;;5096809;27;20044;-54
2022/05/22 04:58:30;;;;;;;1.30;0.30;;;24.90;41.40;;;;;;5092571;27;20042;-51
2022/05/22 05:01:05;;;;;;;2.28;0.10;;;24.90;41.50;;;;;;5094397;27;20031;-52
2022/05/22 05:03:37;;;;;;;1.25;0.10;;;24.90;41.30;;;;;;5087821;27;20115;-54
2022/05/22 05:06:05;;;;;;;1.27;0.10;;;24.90;41.30;;;;;;5085551;28;20134;-54
2022/05/22 05:08:34;;;;;;;0.30;0.10;;;24.90;41.30;;;;;;5110073;27;20078;-53
2022/05/22 05:11:13;;;;;;;0.73;0.38;;;24.90;41.30;;;;;;5088410;28;20530;-53
2022/05/22 05:13:50;;;;;;;0.20;0.10;;;24.90;41.20;;;;;;5095019;27;20050;-53
2022/05/22 05:16:18;;;;;;;0.47;0.10;;;24.90;41.20;;;;;;5094147;28;20041;-52
2022/05/22 05:18:52;;;;;;;0.98;0.10;;;24.90;41.20;;;;;;5081465;27;20031;-49
2022/05/22 05:21:19;;;;;;;3.10;0.52;;;24.90;41.20;;;;;;5098330;28;20134;-51
2022/05/22 05:23:50;;;;;;;1.70;0.10;;;24.90;41.10;;;;;;5089629;28;20480;-53
2022/05/22 05:26:21;;;;;;;0.73;0.30;;;24.90;41.10;;;;;;5110952;27;20071;-51
2022/05/22 05:28:49;;;;;;;3.08;0.10;;;24.90;41.00;;;;;;5107636;28;20062;-51
2022/05/22 05:31:26;;;;;;;2.25;0.20;;;24.90;41.00;;;;;;5092411;27;20039;-52
2022/05/22 05:33:53;;;;;;;1.08;0.10;;;25.00;41.00;;;;;;5114677;27;20035;-53
2022/05/22 05:36:30;;;;;;;0.47;0.20;;;25.00;41.10;;;;;;5084597;28;20031;-54
2022/05/22 05:39:10;;;;;;;1.85;0.10;;;25.00;40.90;;;;;;5092568;28;20047;-55
2022/05/22 05:42:06;;;;;;;0.90;0.10;;;25.00;40.80;;;;;;5119384;27;20066;-53
2022/05/22 05:44:36;;;;;;;1.50;0.10;;;24.90;40.80;;;;;;5112162;28;20047;-55
2022/05/22 05:47:26;;;;;;;1.08;0.10;;;24.90;40.90;;;;;;5100924;28;20048;-54
2022/05/22 05:50:03;;;;;;;1.85;0.10;;;24.90;40.80;;;;;;5098942;28;20070;-53
2022/05/22 05:52:52;;;;;;;2.00;0.10;;;24.90;40.80;;;;;;5095256;28;20051;-54
2022/05/22 05:55:37;;;;;;;1.35;0.30;;;24.90;40.80;;;;;;5113355;28;20415;-54
2022/05/22 05:58:25;;;;;;;0.63;0.13;;;24.90;40.70;;;;;;5100800;28;20046;-54
2022/05/22 06:00:59;;;;;;;4.43;0.17;;;24.90;40.70;;;;;;5091966;28;20135;-53
2022/05/22 06:03:30;;;;;;;0.22;0.10;;;24.90;40.70;;;;;;5098458;28;20040;-49
2022/05/22 06:05:57;;;;;;;1.00;0.03;;;24.90;40.70;;;;;;5101730;28;20093;-49
2022/05/22 06:08:29;;;;;;;1.75;0.10;;;25.00;40.70;;;;;;5090815;28;20039;-52
2022/05/22 06:11:07;;;;;;;0.20;0.10;;;24.90;40.60;;;;;;5088429;28;20100;-55
2022/05/22 06:13:40;;;;;;;1.00;0.90;;;25.00;40.60;;;;;;5092822;28;20131;-50
2022/05/22 06:16:08;;;;;;;3.05;0.10;;;25.00;40.50;;;;;;5104112;27;20036;-55
2022/05/22 06:18:45;;;;;;;3.03;0.10;;;25.00;40.50;;;;;;5089986;28;20112;-52
2022/05/22 06:21:17;;;;;;;2.05;0.10;;;25.00;40.50;;;;;;5092003;28;20462;-53
2022/05/22 06:23:46;;;;;;;0.68;0.10;;;25.00;40.50;;;;;;5111101;27;20074;-51
2022/05/22 06:26:17;;;;;;;0.77;0.20;;;25.00;40.30;;;;;;5107134;27;20036;-50
2022/05/22 06:29:05;;;;;;;1.23;0.10;;;25.10;41.00;;;;;;5111796;27;20223;-52
2022/05/22 06:31:53;;;;;;;0.45;0.10;;;25.00;40.30;;;;;;5111671;27;20071;-54
2022/05/22 06:34:35;;;;;;;0.85;0.10;;;25.00;40.20;;;;;;5107470;27;20059;-50
2022/05/22 06:37:23;;;;;;;0.65;0.20;;;25.00;40.30;;;;;;5111034;27;20122;-52
2022/05/22 06:40:10;;;;;;;0.80;0.10;;;25.10;40.30;;;;;;5110893;27;20044;-52
2022/05/22 06:43:01;;;;;;;3.40;0.20;;;25.10;40.30;;;;;;5108035;27;20126;-55
2022/05/22 06:45:49;;;;;;;4.38;0.20;;;25.10;40.30;;;;;;5092407;27;20035;-53
2022/05/22 06:48:36;;;;;;;0.57;0.20;;;25.10;40.30;;;;;;5097319;28;20119;-53
2022/05/22 06:51:20;;;;;;;0.40;0.40;;;25.10;40.30;;;;;;5086997;28;20047;-54
2022/05/22 06:54:06;;;;;;;3.53;0.10;;;25.10;40.20;;;;;;5124331;27;20062;-51
2022/05/22 06:57:14;;;;;;;0.88;0.20;;;25.10;40.20;;;;;;5088527;28;20059;-53
2022/05/22 06:59:57;;;;;;;2.05;0.17;;;25.20;40.30;;;;;;5070316;28;20093;-53
2022/05/22 07:02:44;;;;;;;4.95;0.47;;;25.20;40.20;;;;;;5090466;28;20063;-54
2022/05/22 07:05:17;;;;;;;1.75;0.20;;;25.20;40.20;;;;;;5085683;28;20105;-52
2022/05/22 07:07:56;;;;;;;0.38;0.10;;;25.20;40.20;;;;;;5088549;28;20511;-53
2022/05/22 07:13:43;;;;;;;1.45;0.20;;;25.20;40.10;;;;;;5083976;28;20081;-53
2022/05/22 07:16:24;;;;;;;0.55;0.10;;;25.20;40.10;;;;;;5072052;28;20050;-55
2022/05/22 07:19:14;;;;;;;0.40;0.10;;;25.20;40.20;;;;;;5074696;28;20098;-55
2022/05/22 07:22:01;;;;;;;2.53;2.33;;;25.30;40.20;;;;;;5085140;28;20544;-54
2022/05/22 07:24:46;;;;;;;3.20;0.50;;;25.30;40.30;;;;;;5063337;28;20032;-51
2022/05/22 07:27:29;;;;;;;2.78;0.73;;;25.30;40.30;;;;;;5073552;27;20047;-53
2022/05/22 07:30:24;;;;;;;1.40;0.10;;;25.30;40.20;;;;;;5120342;27;20046;-53
2022/05/22 07:33:07;;;;;;;0.22;0.20;;;25.30;40.10;;;;;;5093363;27;20450;-57
2022/05/22 07:35:57;;;;;;;0.30;0.10;;;25.30;40.10;;;;;;5123969;27;20039;-53
2022/05/22 07:38:40;;;;;;;1.75;0.50;;;25.40;40.10;;;;;;5120130;27;20051;-51
2022/05/22 07:41:26;;;;;;;3.97;0.20;;;25.40;40.20;;;;;;5114807;27;20057;-55
2022/05/22 07:43:53;;;;;;;4.78;0.17;;;25.40;40.20;;;;;;5127674;27;20039;-52
2022/05/22 07:46:32;;;;;;;1.38;0.10;;;25.40;40.20;;;;;;5110719;27;20050;-53
2022/05/22 07:52:21;;;;;;;1.90;0.13;;;25.40;40.00;;;;;;5126105;27;20042;-54
2022/05/22 07:55:19;;;;;;;4.53;0.20;;;25.40;40.00;;;;;;5084420;28;20067;-51
2022/05/22 07:58:09;;;;;;;1.13;0.10;;;25.50;40.10;;;;;;5106886;28;20043;-50
2022/05/22 08:00:51;;;;;;;0.20;0.10;;;25.40;40.00;;;;;;5082263;28;20040;-52
2022/05/22 08:03:38;;;;;;;0.82;0.10;;;25.50;40.00;;;;;;5108261;28;20442;-50
2022/05/22 08:06:07;;;;;;;2.38;1.15;;;25.50;40.10;;;;;;5089272;28;20043;-52
2022/05/22 08:08:39;;;;;;;0.52;0.20;;;25.50;40.00;;;;;;5090978;28;20503;-55
2022/05/22 08:11:12;;;;;;;5.13;0.30;;;25.60;40.00;;;;;;5088043;28;20599;-59
2022/05/22 08:14:04;;;;;;;1.13;0.80;;;25.50;40.20;;;;;;5055006;28;20516;-67
2022/05/22 08:16:37;;;;;;;1.15;0.40;;;25.60;40.50;;;;;;5083645;28;20062;-64
2022/05/22 08:19:10;;;;;;;0.80;0.30;;;25.80;40.50;;;;;;5082872;28;20058;-65
2022/05/22 08:21:49;;;;;;;2.63;0.82;;;26.00;40.30;;;;;;5085894;28;20051;-65
2022/05/22 08:24:18;;;;;;;1.75;0.63;;;26.30;40.00;;;;;;5085118;28;20085;-55
2022/05/22 08:26:48;;;;;;;2.08;0.30;;;26.50;39.60;;;;;;5098320;28;20526;-56
2022/05/22 08:29:22;;;;;;;0.28;0.20;;;26.80;39.30;;;;;;5085326;28;20519;-56
2022/05/22 08:31:49;;;;;;;0.88;0.10;;;27.10;39.00;;;;;;5083107;28;20054;-52
2022/05/22 08:34:17;;;;;;;0.63;0.13;;;27.40;38.40;;;;;;5094120;28;20040;-53
2022/05/22 08:36:45;;;;;;;2.22;0.98;;;27.70;38.00;;;;;;5101066;28;20051;-58
2022/05/22 08:39:12;;;;;;;0.40;0.10;;;28.00;37.50;;;;;;5099085;28;20031;-69
2022/05/22 08:41:45;;;;;;;1.70;0.20;;;28.20;37.00;;;;;;5102836;28;20067;-64
2022/05/22 08:44:15;;;;;;;2.80;0.10;;;28.50;36.50;;;;;;5100288;28;20035;-62
2022/05/22 08:46:57;;;;;;;1.20;0.35;;;28.70;36.30;;;;;;5096869;28;20048;-61
2022/05/22 08:49:28;;;;;;;1.00;0.25;;;28.90;35.90;;;;;;5094812;28;20036;-61
2022/05/22 08:52:01;;;;;;;1.98;0.38;;;29.00;35.60;;;;;;5099849;28;20043;-51
2022/05/22 08:54:32;;;;;;;4.35;0.13;;;29.20;35.50;;;;;;5094213;28;20511;-51
2022/05/22 08:59:55;;;;;;;1.15;0.10;;;29.40;34.80;;;;;;5097654;28;20162;-63
2022/05/22 09:02:33;;;;;;;1.73;0.10;;;29.50;34.70;;;;;;5079831;28;20039;-69
2022/05/22 09:05:05;;;;;;;1.23;0.10;;;29.70;34.50;;;;;;5100144;28;20120;-62
2022/05/22 09:07:41;;;;;;;1.20;0.55;;;29.70;34.40;;;;;;5087565;28;20050;-61
2022/05/22 09:10:11;;;;;;;2.28;0.10;;;29.80;34.40;;;;;;5081925;28;20060;-56
2022/05/22 09:13:00;;;;;;;6.97;0.25;;;29.90;34.30;;;;;;5095439;28;20458;-56
2022/05/22 09:15:38;;;;;;;4.45;0.30;;;30.00;34.20;;;;;;5099300;28;20047;-57
2022/05/22 09:18:16;;;;;;;0.75;0.10;;;30.10;34.10;;;;;;5093457;28;20054;-58
2022/05/22 09:20:53;;;;;;;0.80;0.20;;;30.10;33.90;;;;;;5095328;28;20051;-49
2022/05/22 09:23:40;;;;;;;0.75;0.25;;;30.20;33.00;;;;;;5097394;28;20043;-51
2022/05/22 09:26:10;;;;;;;2.85;0.52;;;30.10;32.70;;;;;;5092355;28;20036;-52
2022/05/22 09:28:49;;;;;;;2.55;0.10;;;30.00;32.80;;;;;;5093200;28;20047;-48
2022/05/22 09:31:27;;;;;;;1.25;0.30;;;29.90;33.00;;;;;;5096438;28;20032;-71
2022/05/22 09:34:06;;;;;;;0.43;0.10;;;29.80;33.00;;;;;;5098242;28;20035;-72
2022/05/22 09:36:45;;;;;;;1.33;0.47;;;29.70;33.00;;;;;;5085280;28;20446;-69
2022/05/22 09:39:28;;;;;;;1.52;0.10;;;29.60;33.20;;;;;;5092327;28;20036;-60
2022/05/22 09:42:09;;;;;;;1.20;0.13;;;29.60;33.20;;;;;;5094627;28;20115;-72
2022/05/22 09:44:59;;;;;;;0.82;0.10;;;29.50;33.30;;;;;;5096430;28;20043;-64
2022/05/22 09:48:03;;;;;;;1.65;0.30;;;29.40;33.30;;;;;;5087685;28;20798;-56
2022/05/22 09:50:35;;;;;;;0.63;0.20;;;29.30;33.30;;;;;;5093462;28;20039;-56
2022/05/22 09:53:07;;;;;;;0.20;0.10;;;29.30;33.40;;;;;;5101610;27;20130;-54
2022/05/22 09:55:44;;;;;;;2.95;0.20;;;29.20;33.50;;;;;;5123069;27;20044;-55
2022/05/22 09:58:31;;;;;;;0.90;0.20;;;29.20;33.70;;;;;;5118966;27;20035;-53
2022/05/22 10:01:05;;;;;;;2.63;0.80;;;29.10;33.60;;;;;;5113587;27;20120;-53
2022/05/22 10:03:45;;;;;;;1.35;0.40;;;29.10;33.70;;;;;;5117380;27;20051;-58
2022/05/22 10:06:20;;;;;;;1.40;0.50;;;29.00;33.80;;;;;;5114181;27;20046;-56
2022/05/22 10:09:02;;;;;;;2.25;0.20;;;29.00;33.80;;;;;;5118346;27;20105;-58
2022/05/22 10:11:38;;;;;;;0.28;0.03;;;29.00;33.80;;;;;;5113953;27;20039;-57
2022/05/22 10:14:17;;;;;;;0.20;0.10;;;28.90;33.60;;;;;;5118662;27;20042;-56
2022/05/22 10:16:56;;;;;;;1.00;0.10;;;28.90;33.60;;;;;;5113651;27;20043;-51
2022/05/22 10:19:34;;;;;;;0.55;0.10;;;28.90;33.50;;;;;;5114049;27;20080;-58
2022/05/22 10:22:09;;;;;;;4.10;0.30;;;28.90;33.70;;;;;;5119542;27;20050;-55
2022/05/22 10:24:53;;;;;;;2.63;0.30;;;28.90;33.40;;;;;;5116016;27;20092;-57
2022/05/22 10:27:53;;;;;;;0.40;0.10;;;28.80;33.30;;;;;;5112394;27;20032;-58
2022/05/22 10:30:25;;;;;;;1.40;0.10;;;28.80;33.30;;;;;;5120258;27;32389;-56
2022/05/22 10:32:59;;;;;;;1.17;0.38;;;28.80;33.20;;;;;;5103157;27;20146;-57
2022/05/22 10:35:31;;;;;;;5.50;0.10;;;28.80;33.90;;;;;;5119531;27;20043;-56
2022/05/22 10:38:05;;;;;;;3.30;0.13;;;28.80;33.30;;;;;;5112861;27;20035;-55
2022/05/22 10:43:13;;;;;;;1.13;0.10;;;28.70;33.60;;;;;;5115337;27;20172;-55
2022/05/22 10:45:40;;;;;;;1.05;0.20;;;28.70;33.60;;;;;;5115802;27;20046;-58
2022/05/22 10:48:12;;;;;;;2.88;0.10;;;28.70;33.80;;;;;;5115053;27;20112;-57
2022/05/22 10:50:52;;;;;;;2.10;0.30;;;28.70;33.90;;;;;;5119125;27;20049;-53
2022/05/22 10:53:32;;;;;;;3.60;0.20;;;28.70;34.00;;;;;;5108239;27;20044;-58
2022/05/22 10:56:02;;;;;;;1.92;0.10;;;28.60;34.20;;;;;;5096340;27;20046;-58
2022/05/22 10:58:31;;;;;;;0.88;0.10;;;28.60;34.40;;;;;;5104839;27;20500;-57
2022/05/22 11:01:00;;;;;;;2.05;0.10;;;28.60;34.40;;;;;;5102672;27;20449;-58
2022/05/22 11:03:32;;;;;;;1.08;0.20;;;28.60;34.50;;;;;;5097363;27;20075;-57
2022/05/22 11:06:01;;;;;;;1.58;0.10;;;28.50;34.70;;;;;;5099755;27;20086;-58
2022/05/22 11:08:31;;;;;;;0.20;0.10;;;28.50;34.70;;;;;;5100393;27;20042;-55
2022/05/22 11:11:11;;;;;;;3.40;0.30;;;28.50;35.00;;;;;;5103214;27;20151;-54
2022/05/22 11:13:40;;;;;;;0.10;0.10;;;28.50;35.00;;;;;;5104079;27;20050;-55
2022/05/22 11:16:15;;;;;;;5.10;0.40;;;28.40;34.90;;;;;;5095485;27;20062;-58
2022/05/22 11:18:45;;;;;;;0.47;0.10;;;28.40;36.10;;;;;;5098369;27;20119;-57
2022/05/22 11:21:24;;;;;;;0.25;0.20;;;28.40;36.80;;;;;;5098661;27;20046;-55
2022/05/22 11:24:06;;;;;;;1.52;0.30;;;28.40;37.20;;;;;;5101045;27;20579;-53
2022/05/22 11:26:53;;;;;;;0.52;0.10;;;28.30;37.50;;;;;;5098158;27;20047;-57
2022/05/22 11:29:51;;;;;;;0.77;0.10;;;28.30;37.80;;;;;;5102119;27;20047;-57
2022/05/22 11:32:33;;;;;;;0.65;0.22;;;28.30;38.00;;;;;;5100098;27;20052;-54
2022/05/22 11:35:36;;;;;;;0.40;0.20;;;28.20;38.40;;;;;;5100826;27;20067;-54
2022/05/22 11:38:30;;;;;;;1.33;0.40;;;28.20;38.40;;;;;;5096116;27;21071;-57
2022/05/22 11:41:06;;;;;;;1.15;0.30;;;28.20;38.30;;;;;;5097030;27;20516;-56
2022/05/22 11:43:51;;;;;;;1.35;0.10;;;28.20;37.90;;;;;;5095853;27;20072;-56
2022/05/22 11:46:26;;;;;;;3.35;0.20;;;28.20;37.80;;;;;;5095927;27;20114;-56
2022/05/22 11:49:23;;;;;;;0.30;0.10;;;28.10;37.80;;;;;;5097989;27;20119;-56
2022/05/22 11:55:29;;;;;;;0.30;0.10;;;28.00;38.00;;;;;;5102703;27;20419;-54
2022/05/22 11:58:11;;;;;;;1.00;0.10;;;28.00;38.00;;;;;;5095648;27;20039;-59
2022/05/22 12:00:43;;;;;;;1.35;0.30;;;27.90;37.90;;;;;;5098882;27;20139;-59
2022/05/22 12:03:21;;;;;;;;;;;28.00;38.00;;;;;;5100082;27;20154;-58
2022/05/22 12:06:06;;;;;;;1.75;0.30;;;27.90;37.90;;;;;;5099658;27;20400;-58
2022/05/22 12:09:04;;;;;;;0.73;0.10;;;27.90;38.50;;;;;;5096742;27;20508;-60
2022/05/22 12:11:38;;;;;;;0.73;0.10;;;28.00;38.10;;;;;;5080813;28;20048;-60
2022/05/22 12:14:16;;;;;;;2.03;0.10;;;28.00;37.90;;;;;;5081251;28;20503;-60
2022/05/22 12:16:50;;;;;;;1.50;0.38;;;27.90;37.70;;;;;;5092651;27;20046;-60
2022/05/22 12:19:23;;;;;;;2.33;0.30;;;28.00;37.60;;;;;;5098911;27;20152;-60
2022/05/22 12:22:02;;;;;;;0.68;0.10;;;28.00;37.50;;;;;;5101933;27;20068;-61
2022/05/22 12:24:38;;;;;;;0.40;0.32;;;28.00;37.10;;;;;;5096799;27;20085;-60
2022/05/22 12:27:15;;;;;;;1.08;0.10;;;28.00;37.00;;;;;;5095396;27;20048;-59
2022/05/22 12:29:48;;;;;;;0.43;0.10;;;28.10;37.20;;;;;;5100831;27;20039;-61
2022/05/22 12:32:21;;;;;;;0.30;0.17;;;28.10;37.20;;;;;;5104249;27;20043;-61
2022/05/22 12:34:52;;;;;;;0.30;0.20;;;28.10;37.10;;;;;;5102117;27;20586;-61
2022/05/22 12:37:29;;;;;;;1.25;0.10;;;28.00;36.70;;;;;;5087813;27;20125;-60
2022/05/22 12:40:08;;;;;;;4.68;0.75;;;28.10;36.50;;;;;;5098951;28;20560;-60
2022/05/22 12:42:39;;;;;;;1.60;0.28;;;28.10;36.40;;;;;;5103126;27;20255;-61
2022/05/22 12:45:08;;;;;;;2.67;0.20;;;28.10;36.30;;;;;;5100309;27;20035;-63
2022/05/22 12:47:43;;;;;;;0.10;0.10;;;28.20;36.40;;;;;;5087633;27;20048;-63
2022/05/22 12:50:11;;;;;;;2.28;0.30;;;28.20;36.30;;;;;;5097104;27;20032;-62
2022/05/22 12:52:41;;;;;;;0.25;0.10;;;28.10;36.20;;;;;;5098768;28;20047;-63
2022/05/22 12:55:21;;;;;;;2.13;0.20;;;28.10;36.20;;;;;;5100406;28;20092;-63
2022/05/22 12:57:58;;;;;;;3.05;0.20;;;28.10;36.20;;;;;;5101628;27;20063;-63
2022/05/22 13:00:42;;;;;;;0.30;0.10;;;28.10;36.00;;;;;;5097723;28;20039;-62
2022/05/22 13:03:16;;;;;;;0.68;0.68;;;28.10;36.10;;;;;;5101078;27;20035;-61
2022/05/22 13:05:50;;;;;;;0.20;0.10;;;28.00;36.00;;;;;;5096843;27;20044;-65
2022/05/22 13:08:24;;;;;;;0.32;0.10;;;28.00;36.10;;;;;;5086710;27;21121;-66
2022/05/22 13:10:55;;;;;;;0.43;0.20;;;28.00;36.10;;;;;;5073453;28;20118;-67
2022/05/22 13:13:28;;;;;;;2.53;0.20;;;28.00;36.20;;;;;;5103130;27;20051;-66
2022/05/22 13:16:01;;;;;;;1.52;0.10;;;28.00;36.10;;;;;;5094368;27;20130;-66
2022/05/22 13:18:28;;;;;;;1.65;0.77;;;28.00;36.00;;;;;;5097770;28;20042;-65
2022/05/22 13:20:57;;;;;;;3.47;0.95;;;28.00;36.10;;;;;;5106581;27;20123;-67
2022/05/22 13:23:43;;;;;;;2.65;0.65;;;28.00;36.20;;;;;;5099312;28;20123;-66
2022/05/22 13:26:27;;;;;;;2.10;0.40;;;28.00;36.10;;;;;;5095407;27;20120;-63
2022/05/22 13:29:02;;;;;;;3.05;0.75;;;28.00;36.10;;;;;;5097256;27;20051;-63
2022/05/22 13:31:39;;;;;;;1.27;0.30;;;28.00;36.10;;;;;;5101780;27;20600;-66
2022/05/22 13:34:20;;;;;;;2.22;0.20;;;28.10;36.20;;;;;;5094953;28;20587;-64
2022/05/22 13:36:54;;;;;;;0.20;0.20;;;28.10;36.20;;;;;;5088255;28;20044;-66
2022/05/22 13:39:32;;;;;;;2.08;0.80;;;28.10;36.10;;;;;;5095824;28;20044;-57
2022/05/22 13:42:39;;;;;;;0.32;0.10;;;28.10;36.20;;;;;;5100648;27;20058;-55
2022/05/22 13:45:24;;;;;;;1.90;0.13;;;28.10;36.30;;;;;;5086419;28;20500;-57
2022/05/22 13:48:26;;;;;;;1.75;0.20;;;28.10;36.70;;;;;;5091819;28;20234;-58